sensor_id;sensor_type;location;lat;lon;timestamp;P1;durP1;ratioP1;P2;durP2;ratioP2
23588;SDS011;11972;48.078;11.876;2022-11-28T00:01:36;15.15;;;11.68;;
23588;SDS011;11972;48.078;11.876;2022-11-28T00:09:42;15.98;;;12.18;;
23588;SDS011;11972;48.078;11.876;2022-11-28T00:13:45;15.60;;;11.77;;
23588;SDS011;11972;48.078;11.876;2022-11-28T00:17:45;17.15;;;12.35;;
23588;SDS011;11972;48.078;11.876;2022-11-28T00:21:46;14.85;;;12.15;;
23588;SDS011;11972;48.078;11.876;2022-11-28T00:25:46;15.27;;;12.43;;
23588;SDS011;11972;48.078;11.876;2022-11-28T00:29:55;15.02;;;11.43;;
23588;SDS011;11972;48.078;11.876;2022-11-28T00:33:56;15.63;;;12.10;;
23588;SDS011;11972;48.078;11.876;2022-11-28T00:37:56;15.63;;;12.57;;
23588;SDS011;11972;48.078;11.876;2022-11-28T00:41:57;14.98;;;12.18;;
23588;SDS011;11972;48.078;11.876;2022-11-28T00:45:57;14.60;;;11.60;;
23588;SDS011;11972;48.078;11.876;2022-11-28T00:49:58;17.30;;;13.00;;
23588;SDS011;11972;48.078;11.876;2022-11-28T00:53:58;18.55;;;12.35;;
23588;SDS011;11972;48.078;11.876;2022-11-28T00:58:02;17.77;;;13.75;;
23588;SDS011;11972;48.078;11.876;2022-11-28T01:02:02;18.77;;;13.27;;
23588;SDS011;11972;48.078;11.876;2022-11-28T01:06:03;16.80;;;13.23;;
23588;SDS011;11972;48.078;11.876;2022-11-28T01:10:05;18.85;;;13.85;;
23588;SDS011;11972;48.078;11.876;2022-11-28T01:14:06;17.80;;;13.35;;
23588;SDS011;11972;48.078;11.876;2022-11-28T01:18:06;14.98;;;11.82;;
23588;SDS011;11972;48.078;11.876;2022-11-28T01:22:06;17.30;;;12.73;;
23588;SDS011;11972;48.078;11.876;2022-11-28T01:26:07;16.25;;;12.48;;
23588;SDS011;11972;48.078;11.876;2022-11-28T01:30:10;15.63;;;12.02;;
23588;SDS011;11972;48.078;11.876;2022-11-28T01:34:10;14.70;;;12.05;;
23588;SDS011;11972;48.078;11.876;2022-11-28T01:38:11;14.95;;;12.10;;
23588;SDS011;11972;48.078;11.876;2022-11-28T01:42:18;16.48;;;12.55;;
23588;SDS011;11972;48.078;11.876;2022-11-28T01:46:18;16.95;;;12.73;;
23588;SDS011;11972;48.078;11.876;2022-11-28T01:50:19;15.50;;;12.32;;
23588;SDS011;11972;48.078;11.876;2022-11-28T01:54:21;18.00;;;13.80;;
23588;SDS011;11972;48.078;11.876;2022-11-28T01:58:24;16.00;;;12.93;;
23588;SDS011;11972;48.078;11.876;2022-11-28T02:02:32;17.13;;;12.98;;
23588;SDS011;11972;48.078;11.876;2022-11-28T02:06:36;16.98;;;13.18;;
23588;SDS011;11972;48.078;11.876;2022-11-28T02:15:09;18.98;;;14.82;;
23588;SDS011;11972;48.078;11.876;2022-11-28T02:40:37;18.92;;;14.18;;
23588;SDS011;11972;48.078;11.876;2022-11-28T02:48:56;17.92;;;13.48;;
23588;SDS011;11972;48.078;11.876;2022-11-28T02:53:06;17.00;;;12.60;;
23588;SDS011;11972;48.078;11.876;2022-11-28T02:57:11;16.98;;;12.88;;
23588;SDS011;11972;48.078;11.876;2022-11-28T03:01:16;17.55;;;13.13;;
23588;SDS011;11972;48.078;11.876;2022-11-28T03:05:33;17.20;;;13.27;;
23588;SDS011;11972;48.078;11.876;2022-11-28T03:09:48;17.75;;;13.65;;
23588;SDS011;11972;48.078;11.876;2022-11-28T03:13:56;18.00;;;13.30;;
23588;SDS011;11972;48.078;11.876;2022-11-28T03:18:10;16.73;;;12.98;;
23588;SDS011;11972;48.078;11.876;2022-11-28T03:30:59;17.08;;;13.05;;
23588;SDS011;11972;48.078;11.876;2022-11-28T03:35:14;15.07;;;12.05;;
23588;SDS011;11972;48.078;11.876;2022-11-28T03:39:18;15.93;;;12.88;;
23588;SDS011;11972;48.078;11.876;2022-11-28T03:43:24;15.48;;;13.05;;
23588;SDS011;11972;48.078;11.876;2022-11-28T03:47:31;16.83;;;13.20;;
23588;SDS011;11972;48.078;11.876;2022-11-28T03:51:43;18.65;;;14.50;;
23588;SDS011;11972;48.078;11.876;2022-11-28T03:55:51;17.15;;;13.65;;
23588;SDS011;11972;48.078;11.876;2022-11-28T04:00:07;17.25;;;13.52;;
23588;SDS011;11972;48.078;11.876;2022-11-28T04:04:14;16.45;;;12.52;;
23588;SDS011;11972;48.078;11.876;2022-11-28T04:08:41;16.90;;;12.40;;
23588;SDS011;11972;48.078;11.876;2022-11-28T04:21:38;16.52;;;13.02;;
23588;SDS011;11972;48.078;11.876;2022-11-28T04:25:57;17.02;;;12.70;;
23588;SDS011;11972;48.078;11.876;2022-11-28T04:30:06;16.75;;;12.70;;
23588;SDS011;11972;48.078;11.876;2022-11-28T04:34:08;14.88;;;12.13;;
23588;SDS011;11972;48.078;11.876;2022-11-28T04:38:13;15.65;;;12.20;;
23588;SDS011;11972;48.078;11.876;2022-11-28T04:42:34;16.85;;;12.68;;
23588;SDS011;11972;48.078;11.876;2022-11-28T04:46:47;16.45;;;12.10;;
23588;SDS011;11972;48.078;11.876;2022-11-28T04:50:53;14.77;;;12.20;;
23588;SDS011;11972;48.078;11.876;2022-11-28T04:59:17;13.13;;;11.45;;
23588;SDS011;11972;48.078;11.876;2022-11-28T05:03:20;14.15;;;11.32;;
23588;SDS011;11972;48.078;11.876;2022-11-28T05:07:25;13.48;;;10.88;;
23588;SDS011;11972;48.078;11.876;2022-11-28T05:11:26;14.23;;;11.15;;
23588;SDS011;11972;48.078;11.876;2022-11-28T05:15:26;14.57;;;11.93;;
23588;SDS011;11972;48.078;11.876;2022-11-28T05:19:27;13.13;;;11.13;;
23588;SDS011;11972;48.078;11.876;2022-11-28T05:23:27;12.98;;;11.13;;
23588;SDS011;11972;48.078;11.876;2022-11-28T05:27:27;12.40;;;10.85;;
23588;SDS011;11972;48.078;11.876;2022-11-28T05:31:28;13.25;;;10.77;;
23588;SDS011;11972;48.078;11.876;2022-11-28T05:35:28;12.45;;;10.52;;
23588;SDS011;11972;48.078;11.876;2022-11-28T05:39:29;12.88;;;10.32;;
23588;SDS011;11972;48.078;11.876;2022-11-28T05:43:29;10.82;;;9.68;;
23588;SDS011;11972;48.078;11.876;2022-11-28T05:47:31;11.50;;;10.30;;
23588;SDS011;11972;48.078;11.876;2022-11-28T05:51:32;15.30;;;11.07;;
23588;SDS011;11972;48.078;11.876;2022-11-28T05:55:32;13.93;;;12.52;;
23588;SDS011;11972;48.078;11.876;2022-11-28T05:59:33;13.85;;;11.32;;
23588;SDS011;11972;48.078;11.876;2022-11-28T06:03:33;12.30;;;10.85;;
23588;SDS011;11972;48.078;11.876;2022-11-28T06:07:33;13.95;;;11.38;;
23588;SDS011;11972;48.078;11.876;2022-11-28T06:11:34;14.10;;;10.88;;
23588;SDS011;11972;48.078;11.876;2022-11-28T06:15:35;14.30;;;12.02;;
23588;SDS011;11972;48.078;11.876;2022-11-28T06:19:35;14.52;;;11.02;;
23588;SDS011;11972;48.078;11.876;2022-11-28T06:23:36;13.07;;;10.45;;
23588;SDS011;11972;48.078;11.876;2022-11-28T06:27:37;13.82;;;11.82;;
23588;SDS011;11972;48.078;11.876;2022-11-28T06:31:37;15.05;;;11.82;;
23588;SDS011;11972;48.078;11.876;2022-11-28T06:35:37;13.88;;;10.82;;
23588;SDS011;11972;48.078;11.876;2022-11-28T06:39:38;13.43;;;11.10;;
23588;SDS011;11972;48.078;11.876;2022-11-28T06:43:38;14.43;;;11.55;;
23588;SDS011;11972;48.078;11.876;2022-11-28T06:47:39;12.98;;;10.55;;
23588;SDS011;11972;48.078;11.876;2022-11-28T06:51:40;13.57;;;10.70;;
23588;SDS011;11972;48.078;11.876;2022-11-28T06:55:41;14.20;;;11.13;;
23588;SDS011;11972;48.078;11.876;2022-11-28T06:59:42;13.82;;;10.80;;
23588;SDS011;11972;48.078;11.876;2022-11-28T07:03:42;13.43;;;11.13;;
23588;SDS011;11972;48.078;11.876;2022-11-28T07:07:43;13.48;;;10.90;;
23588;SDS011;11972;48.078;11.876;2022-11-28T07:11:44;12.35;;;10.02;;
23588;SDS011;11972;48.078;11.876;2022-11-28T07:15:50;14.00;;;10.75;;
23588;SDS011;11972;48.078;11.876;2022-11-28T07:19:51;11.23;;;10.00;;
23588;SDS011;11972;48.078;11.876;2022-11-28T07:23:51;14.23;;;10.15;;
23588;SDS011;11972;48.078;11.876;2022-11-28T07:27:52;12.65;;;10.75;;
23588;SDS011;11972;48.078;11.876;2022-11-28T07:31:52;12.23;;;10.55;;
23588;SDS011;11972;48.078;11.876;2022-11-28T07:35:53;15.65;;;11.25;;
23588;SDS011;11972;48.078;11.876;2022-11-28T07:39:53;12.05;;;10.23;;
23588;SDS011;11972;48.078;11.876;2022-11-28T07:43:55;11.98;;;9.15;;
23588;SDS011;11972;48.078;11.876;2022-11-28T07:47:59;11.43;;;9.77;;
23588;SDS011;11972;48.078;11.876;2022-11-28T07:51:59;11.88;;;9.05;;
23588;SDS011;11972;48.078;11.876;2022-11-28T07:56:03;10.20;;;8.43;;
23588;SDS011;11972;48.078;11.876;2022-11-28T08:00:05;11.25;;;9.02;;
23588;SDS011;11972;48.078;11.876;2022-11-28T08:04:07;14.80;;;10.73;;
23588;SDS011;11972;48.078;11.876;2022-11-28T08:08:08;9.52;;;8.52;;
23588;SDS011;11972;48.078;11.876;2022-11-28T08:12:08;8.48;;;7.55;;
23588;SDS011;11972;48.078;11.876;2022-11-28T08:16:16;9.00;;;7.28;;
23588;SDS011;11972;48.078;11.876;2022-11-28T08:20:21;7.07;;;6.45;;
23588;SDS011;11972;48.078;11.876;2022-11-28T08:24:21;8.00;;;7.20;;
23588;SDS011;11972;48.078;11.876;2022-11-28T08:28:21;9.43;;;6.70;;
23588;SDS011;11972;48.078;11.876;2022-11-28T08:32:21;7.68;;;6.85;;
23588;SDS011;11972;48.078;11.876;2022-11-28T08:36:22;7.85;;;7.05;;
23588;SDS011;11972;48.078;11.876;2022-11-28T08:40:22;9.27;;;8.20;;
23588;SDS011;11972;48.078;11.876;2022-11-28T08:44:23;10.27;;;8.18;;
23588;SDS011;11972;48.078;11.876;2022-11-28T08:48:24;8.63;;;7.55;;
23588;SDS011;11972;48.078;11.876;2022-11-28T08:52:25;8.43;;;7.53;;
23588;SDS011;11972;48.078;11.876;2022-11-28T08:56:25;7.68;;;6.88;;
23588;SDS011;11972;48.078;11.876;2022-11-28T09:00:25;7.00;;;6.30;;
23588;SDS011;11972;48.078;11.876;2022-11-28T09:04:26;9.55;;;7.22;;
23588;SDS011;11972;48.078;11.876;2022-11-28T09:08:27;7.90;;;7.10;;
23588;SDS011;11972;48.078;11.876;2022-11-28T09:12:29;6.80;;;6.20;;
23588;SDS011;11972;48.078;11.876;2022-11-28T09:16:29;7.28;;;6.57;;
23588;SDS011;11972;48.078;11.876;2022-11-28T09:20:30;7.72;;;6.93;;
23588;SDS011;11972;48.078;11.876;2022-11-28T09:24:30;7.85;;;7.05;;
23588;SDS011;11972;48.078;11.876;2022-11-28T09:28:30;8.20;;;7.40;;
23588;SDS011;11972;48.078;11.876;2022-11-28T09:32:31;7.85;;;7.05;;
23588;SDS011;11972;48.078;11.876;2022-11-28T09:36:32;7.53;;;6.82;;
23588;SDS011;11972;48.078;11.876;2022-11-28T09:40:36;8.85;;;7.65;;
23588;SDS011;11972;48.078;11.876;2022-11-28T09:44:43;8.48;;;7.60;;
23588;SDS011;11972;48.078;11.876;2022-11-28T09:48:49;7.60;;;6.90;;
23588;SDS011;11972;48.078;11.876;2022-11-28T09:57:22;7.68;;;6.75;;
23588;SDS011;11972;48.078;11.876;2022-11-28T10:05:47;6.85;;;6.25;;
23588;SDS011;11972;48.078;11.876;2022-11-28T10:18:40;6.93;;;6.33;;
23588;SDS011;11972;48.078;11.876;2022-11-28T10:27:30;7.32;;;6.30;;
23588;SDS011;11972;48.078;11.876;2022-11-28T10:31:38;7.07;;;6.38;;
23588;SDS011;11972;48.078;11.876;2022-11-28T10:35:46;6.55;;;5.95;;
23588;SDS011;11972;48.078;11.876;2022-11-28T10:39:52;6.97;;;6.28;;
23588;SDS011;11972;48.078;11.876;2022-11-28T10:43:59;6.65;;;6.05;;
23588;SDS011;11972;48.078;11.876;2022-11-28T10:48:18;6.78;;;6.18;;
23588;SDS011;11972;48.078;11.876;2022-11-28T11:01:16;7.90;;;7.20;;
23588;SDS011;11972;48.078;11.876;2022-11-28T11:05:21;6.90;;;6.40;;
23588;SDS011;11972;48.078;11.876;2022-11-28T11:09:26;7.15;;;6.45;;
23588;SDS011;11972;48.078;11.876;2022-11-28T11:13:30;6.72;;;6.03;;
23588;SDS011;11972;48.078;11.876;2022-11-28T11:17:52;7.57;;;6.75;;
23588;SDS011;11972;48.078;11.876;2022-11-28T11:22:27;7.22;;;6.53;;
23588;SDS011;11972;48.078;11.876;2022-11-28T11:26:28;8.90;;;7.05;;
23588;SDS011;11972;48.078;11.876;2022-11-28T11:30:37;8.90;;;7.00;;
23588;SDS011;11972;48.078;11.876;2022-11-28T11:34:42;7.63;;;6.82;;
23588;SDS011;11972;48.078;11.876;2022-11-28T11:38:44;7.55;;;5.82;;
23588;SDS011;11972;48.078;11.876;2022-11-28T11:42:58;9.02;;;7.45;;
23588;SDS011;11972;48.078;11.876;2022-11-28T11:47:08;9.75;;;7.70;;
23588;SDS011;11972;48.078;11.876;2022-11-28T11:51:22;9.25;;;7.57;;
23588;SDS011;11972;48.078;11.876;2022-11-28T11:55:25;8.30;;;7.60;;
23588;SDS011;11972;48.078;11.876;2022-11-28T12:08:00;7.68;;;6.97;;
23588;SDS011;11972;48.078;11.876;2022-11-28T12:12:10;7.55;;;6.95;;
23588;SDS011;11972;48.078;11.876;2022-11-28T12:38:25;7.40;;;6.70;;
23588;SDS011;11972;48.078;11.876;2022-11-28T12:42:40;7.25;;;6.55;;
23588;SDS011;11972;48.078;11.876;2022-11-28T12:46:46;9.35;;;8.43;;
23588;SDS011;11972;48.078;11.876;2022-11-28T12:51:10;9.48;;;8.45;;
23588;SDS011;11972;48.078;11.876;2022-11-28T13:16:55;12.63;;;8.85;;
23588;SDS011;11972;48.078;11.876;2022-11-28T13:21:14;9.43;;;8.25;;
23588;SDS011;11972;48.078;11.876;2022-11-28T13:34:00;10.37;;;8.80;;
23588;SDS011;11972;48.078;11.876;2022-11-28T13:38:06;9.50;;;8.60;;
23588;SDS011;11972;48.078;11.876;2022-11-28T13:42:25;10.25;;;8.70;;
23588;SDS011;11972;48.078;11.876;2022-11-28T13:46:33;11.75;;;8.40;;
23588;SDS011;11972;48.078;11.876;2022-11-28T13:50:34;11.45;;;9.07;;
23588;SDS011;11972;48.078;11.876;2022-11-28T13:54:40;11.18;;;8.98;;
23588;SDS011;11972;48.078;11.876;2022-11-28T13:58:45;13.77;;;11.23;;
23588;SDS011;11972;48.078;11.876;2022-11-28T14:02:56;10.20;;;9.10;;
23588;SDS011;11972;48.078;11.876;2022-11-28T14:07:00;12.23;;;9.48;;
23588;SDS011;11972;48.078;11.876;2022-11-28T14:28:50;11.20;;;9.55;;
23588;SDS011;11972;48.078;11.876;2022-11-28T14:32:55;11.00;;;9.40;;
23588;SDS011;11972;48.078;11.876;2022-11-28T14:49:39;11.43;;;9.77;;
23588;SDS011;11972;48.078;11.876;2022-11-28T14:53:43;11.73;;;10.15;;
23588;SDS011;11972;48.078;11.876;2022-11-28T15:02:06;12.45;;;9.55;;
23588;SDS011;11972;48.078;11.876;2022-11-28T15:10:34;12.90;;;9.65;;
23588;SDS011;11972;48.078;11.876;2022-11-28T15:14:46;11.88;;;10.50;;
23588;SDS011;11972;48.078;11.876;2022-11-28T15:18:53;12.55;;;9.65;;
23588;SDS011;11972;48.078;11.876;2022-11-28T15:22:59;11.45;;;9.38;;
23588;SDS011;11972;48.078;11.876;2022-11-28T15:31:06;12.15;;;10.15;;
23588;SDS011;11972;48.078;11.876;2022-11-28T15:35:17;11.38;;;9.30;;
23588;SDS011;11972;48.078;11.876;2022-11-28T15:39:23;11.93;;;9.32;;
23588;SDS011;11972;48.078;11.876;2022-11-28T15:43:27;12.20;;;9.50;;
23588;SDS011;11972;48.078;11.876;2022-11-28T15:47:30;13.32;;;10.02;;
23588;SDS011;11972;48.078;11.876;2022-11-28T15:51:32;14.20;;;11.57;;
23588;SDS011;11972;48.078;11.876;2022-11-28T15:55:34;20.40;;;13.70;;
23588;SDS011;11972;48.078;11.876;2022-11-28T15:59:35;11.60;;;10.05;;
23588;SDS011;11972;48.078;11.876;2022-11-28T16:03:47;11.45;;;9.68;;
23588;SDS011;11972;48.078;11.876;2022-11-28T16:07:56;14.93;;;12.05;;
23588;SDS011;11972;48.078;11.876;2022-11-28T16:11:56;16.15;;;12.93;;
23588;SDS011;11972;48.078;11.876;2022-11-28T16:15:57;17.45;;;11.57;;
23588;SDS011;11972;48.078;11.876;2022-11-28T16:20:00;16.65;;;11.73;;
23588;SDS011;11972;48.078;11.876;2022-11-28T16:24:02;14.43;;;12.18;;
23588;SDS011;11972;48.078;11.876;2022-11-28T16:28:35;14.95;;;12.18;;
23588;SDS011;11972;48.078;11.876;2022-11-28T16:32:38;17.45;;;12.70;;
23588;SDS011;11972;48.078;11.876;2022-11-28T16:36:39;23.73;;;14.95;;
23588;SDS011;11972;48.078;11.876;2022-11-28T16:40:41;24.10;;;14.88;;
23588;SDS011;11972;48.078;11.876;2022-11-28T16:44:42;25.23;;;16.45;;
23588;SDS011;11972;48.078;11.876;2022-11-28T16:48:47;18.38;;;13.70;;
23588;SDS011;11972;48.078;11.876;2022-11-28T16:52:54;13.55;;;11.35;;
23588;SDS011;11972;48.078;11.876;2022-11-28T16:56:58;15.85;;;12.13;;
23588;SDS011;11972;48.078;11.876;2022-11-28T17:01:07;15.30;;;11.88;;
23588;SDS011;11972;48.078;11.876;2022-11-28T17:05:09;17.30;;;12.48;;
23588;SDS011;11972;48.078;11.876;2022-11-28T17:09:09;16.08;;;12.25;;
23588;SDS011;11972;48.078;11.876;2022-11-28T17:13:11;14.63;;;12.25;;
23588;SDS011;11972;48.078;11.876;2022-11-28T17:17:14;15.80;;;12.65;;
23588;SDS011;11972;48.078;11.876;2022-11-28T17:21:17;15.48;;;12.68;;
23588;SDS011;11972;48.078;11.876;2022-11-28T17:25:25;15.95;;;12.35;;
23588;SDS011;11972;48.078;11.876;2022-11-28T17:29:26;15.40;;;12.45;;
23588;SDS011;11972;48.078;11.876;2022-11-28T17:33:27;16.27;;;12.45;;
23588;SDS011;11972;48.078;11.876;2022-11-28T17:37:27;17.55;;;13.18;;
23588;SDS011;11972;48.078;11.876;2022-11-28T17:41:28;18.27;;;14.40;;
23588;SDS011;11972;48.078;11.876;2022-11-28T17:45:29;19.23;;;14.20;;
23588;SDS011;11972;48.078;11.876;2022-11-28T17:49:31;20.67;;;15.90;;
23588;SDS011;11972;48.078;11.876;2022-11-28T17:53:31;17.85;;;14.38;;
23588;SDS011;11972;48.078;11.876;2022-11-28T17:57:32;18.02;;;13.55;;
23588;SDS011;11972;48.078;11.876;2022-11-28T18:01:32;17.20;;;14.05;;
23588;SDS011;11972;48.078;11.876;2022-11-28T18:05:37;15.63;;;12.90;;
23588;SDS011;11972;48.078;11.876;2022-11-28T18:09:39;21.27;;;13.85;;
23588;SDS011;11972;48.078;11.876;2022-11-28T18:13:40;17.02;;;13.77;;
23588;SDS011;11972;48.078;11.876;2022-11-28T18:17:41;15.60;;;12.10;;
23588;SDS011;11972;48.078;11.876;2022-11-28T18:21:42;15.98;;;12.73;;
23588;SDS011;11972;48.078;11.876;2022-11-28T18:25:43;17.40;;;13.27;;
23588;SDS011;11972;48.078;11.876;2022-11-28T18:29:44;18.20;;;13.00;;
23588;SDS011;11972;48.078;11.876;2022-11-28T18:33:44;16.77;;;12.93;;
23588;SDS011;11972;48.078;11.876;2022-11-28T18:37:46;17.75;;;13.70;;
23588;SDS011;11972;48.078;11.876;2022-11-28T18:41:46;17.13;;;12.55;;
23588;SDS011;11972;48.078;11.876;2022-11-28T18:45:46;26.83;;;16.08;;
23588;SDS011;11972;48.078;11.876;2022-11-28T18:49:47;17.27;;;13.63;;
23588;SDS011;11972;48.078;11.876;2022-11-28T18:53:48;18.40;;;12.80;;
23588;SDS011;11972;48.078;11.876;2022-11-28T18:57:49;18.50;;;13.40;;
23588;SDS011;11972;48.078;11.876;2022-11-28T19:01:50;16.40;;;12.93;;
23588;SDS011;11972;48.078;11.876;2022-11-28T19:05:50;16.75;;;12.95;;
23588;SDS011;11972;48.078;11.876;2022-11-28T19:09:51;19.10;;;12.98;;
23588;SDS011;11972;48.078;11.876;2022-11-28T19:13:51;16.73;;;13.25;;
23588;SDS011;11972;48.078;11.876;2022-11-28T19:17:52;15.05;;;12.25;;
23588;SDS011;11972;48.078;11.876;2022-11-28T19:21:52;16.00;;;12.63;;
23588;SDS011;11972;48.078;11.876;2022-11-28T19:25:53;15.15;;;12.60;;
23588;SDS011;11972;48.078;11.876;2022-11-28T19:29:56;16.67;;;12.73;;
23588;SDS011;11972;48.078;11.876;2022-11-28T19:38:07;19.48;;;13.82;;
23588;SDS011;11972;48.078;11.876;2022-11-28T19:42:08;23.67;;;15.80;;
23588;SDS011;11972;48.078;11.876;2022-11-28T19:46:09;17.63;;;13.43;;
23588;SDS011;11972;48.078;11.876;2022-11-28T19:50:11;16.55;;;12.98;;
23588;SDS011;11972;48.078;11.876;2022-11-28T19:54:15;15.90;;;12.93;;
23588;SDS011;11972;48.078;11.876;2022-11-28T19:58:18;16.10;;;12.77;;
23588;SDS011;11972;48.078;11.876;2022-11-28T20:02:22;19.83;;;13.23;;
23588;SDS011;11972;48.078;11.876;2022-11-28T20:06:23;17.25;;;12.05;;
23588;SDS011;11972;48.078;11.876;2022-11-28T20:10:37;19.77;;;12.80;;
23588;SDS011;11972;48.078;11.876;2022-11-28T20:14:38;15.38;;;12.07;;
23588;SDS011;11972;48.078;11.876;2022-11-28T20:18:39;16.75;;;11.52;;
23588;SDS011;11972;48.078;11.876;2022-11-28T20:22:41;14.63;;;11.18;;
23588;SDS011;11972;48.078;11.876;2022-11-28T20:26:42;13.93;;;11.05;;
23588;SDS011;11972;48.078;11.876;2022-11-28T20:30:42;14.00;;;10.80;;
23588;SDS011;11972;48.078;11.876;2022-11-28T20:34:43;12.35;;;10.13;;
23588;SDS011;11972;48.078;11.876;2022-11-28T20:38:43;10.73;;;9.63;;
23588;SDS011;11972;48.078;11.876;2022-11-28T20:42:44;12.00;;;9.82;;
23588;SDS011;11972;48.078;11.876;2022-11-28T20:46:45;10.60;;;9.40;;
23588;SDS011;11972;48.078;11.876;2022-11-28T20:50:45;10.90;;;9.45;;
23588;SDS011;11972;48.078;11.876;2022-11-28T20:54:46;12.05;;;10.25;;
23588;SDS011;11972;48.078;11.876;2022-11-28T20:58:46;12.15;;;9.90;;
23588;SDS011;11972;48.078;11.876;2022-11-28T21:02:47;13.50;;;10.55;;
23588;SDS011;11972;48.078;11.876;2022-11-28T21:06:47;15.07;;;12.40;;
23588;SDS011;11972;48.078;11.876;2022-11-28T21:10:48;14.82;;;11.32;;
23588;SDS011;11972;48.078;11.876;2022-11-28T21:14:48;12.73;;;10.55;;
23588;SDS011;11972;48.078;11.876;2022-11-28T21:18:50;9.50;;;8.57;;
23588;SDS011;11972;48.078;11.876;2022-11-28T21:22:51;10.05;;;8.88;;
23588;SDS011;11972;48.078;11.876;2022-11-28T21:26:51;12.32;;;9.20;;
23588;SDS011;11972;48.078;11.876;2022-11-28T21:30:52;10.75;;;8.77;;
23588;SDS011;11972;48.078;11.876;2022-11-28T21:34:52;10.05;;;8.68;;
23588;SDS011;11972;48.078;11.876;2022-11-28T21:38:53;9.50;;;8.50;;
23588;SDS011;11972;48.078;11.876;2022-11-28T21:42:55;9.15;;;8.05;;
23588;SDS011;11972;48.078;11.876;2022-11-28T21:46:56;10.25;;;8.57;;
23588;SDS011;11972;48.078;11.876;2022-11-28T21:50:57;11.55;;;8.40;;
23588;SDS011;11972;48.078;11.876;2022-11-28T21:54:58;10.40;;;8.95;;
23588;SDS011;11972;48.078;11.876;2022-11-28T21:58:58;10.40;;;8.77;;
23588;SDS011;11972;48.078;11.876;2022-11-28T22:02:59;15.48;;;12.18;;
23588;SDS011;11972;48.078;11.876;2022-11-28T22:07:00;13.10;;;11.38;;
23588;SDS011;11972;48.078;11.876;2022-11-28T22:11:01;15.73;;;12.43;;
23588;SDS011;11972;48.078;11.876;2022-11-28T22:15:03;10.15;;;9.15;;
23588;SDS011;11972;48.078;11.876;2022-11-28T22:19:04;10.52;;;9.43;;
23588;SDS011;11972;48.078;11.876;2022-11-28T22:23:05;10.40;;;9.10;;
23588;SDS011;11972;48.078;11.876;2022-11-28T22:27:05;9.98;;;8.35;;
23588;SDS011;11972;48.078;11.876;2022-11-28T22:31:13;10.13;;;8.90;;
23588;SDS011;11972;48.078;11.876;2022-11-28T22:35:15;15.32;;;11.15;;
23588;SDS011;11972;48.078;11.876;2022-11-28T22:39:15;11.95;;;10.65;;
23588;SDS011;11972;48.078;11.876;2022-11-28T22:43:15;14.40;;;10.55;;
23588;SDS011;11972;48.078;11.876;2022-11-28T22:47:16;12.32;;;9.50;;
23588;SDS011;11972;48.078;11.876;2022-11-28T22:51:17;13.70;;;8.93;;
23588;SDS011;11972;48.078;11.876;2022-11-28T22:55:19;16.15;;;11.98;;
23588;SDS011;11972;48.078;11.876;2022-11-28T22:59:20;12.75;;;11.15;;
23588;SDS011;11972;48.078;11.876;2022-11-28T23:03:20;14.82;;;12.57;;
23588;SDS011;11972;48.078;11.876;2022-11-28T23:07:20;18.40;;;13.25;;
23588;SDS011;11972;48.078;11.876;2022-11-28T23:11:22;17.77;;;13.30;;
23588;SDS011;11972;48.078;11.876;2022-11-28T23:15:23;14.65;;;11.60;;
23588;SDS011;11972;48.078;11.876;2022-11-28T23:19:24;17.25;;;13.38;;
23588;SDS011;11972;48.078;11.876;2022-11-28T23:23:25;23.15;;;18.00;;
23588;SDS011;11972;48.078;11.876;2022-11-28T23:27:27;18.10;;;13.40;;
23588;SDS011;11972;48.078;11.876;2022-11-28T23:31:28;16.17;;;12.93;;
23588;SDS011;11972;48.078;11.876;2022-11-28T23:35:30;17.02;;;12.82;;
23588;SDS011;11972;48.078;11.876;2022-11-28T23:39:31;19.33;;;12.48;;
23588;SDS011;11972;48.078;11.876;2022-11-28T23:43:31;16.17;;;11.93;;
23588;SDS011;11972;48.078;11.876;2022-11-28T23:47:31;18.60;;;13.88;;
23588;SDS011;11972;48.078;11.876;2022-11-28T23:51:35;13.23;;;11.38;;
23588;SDS011;11972;48.078;11.876;2022-11-28T23:55:35;14.20;;;11.63;;
23588;SDS011;11972;48.078;11.876;2022-11-28T23:59:36;13.55;;;11.27;;
